Time;durP1;ratioP1;P1;durP2;ratioP2;P2;SDS_P1;SDS_P2;PMS_P1;PMS_P2;Temp;Humidity;BMP_temperature;BMP_pressure;BME280_temperature;BME280_humidity;BME280_pressure;Samples;Min_cycle;Max_cycle;Signal;HPM_P1;HPM_P2
2022/03/15 00:02:20;;;;;;;5.63;4.13;;;9.90;99.90;;;;;;5030291;28;20616;-73
2022/03/15 00:04:45;;;;;;;8.63;4.67;;;9.90;99.90;;;;;;5030265;28;20552;-73
2022/03/15 00:07:13;;;;;;;7.60;4.40;;;9.90;99.90;;;;;;5031501;28;20162;-73
2022/03/15 00:09:39;;;;;;;6.03;4.03;;;9.90;99.90;;;;;;5031463;28;20170;-73
2022/03/15 00:12:09;;;;;;;4.60;3.50;;;9.90;99.90;;;;;;5030115;28;20165;-73
2022/03/15 00:14:38;;;;;;;6.00;4.53;;;9.90;99.90;;;;;;5031481;28;20201;-73
2022/03/15 00:17:05;;;;;;;6.93;5.05;;;9.80;99.90;;;;;;5031603;28;20197;-74
2022/03/15 00:19:34;;;;;;;10.50;5.68;;;9.80;99.90;;;;;;5034760;28;20598;-73
2022/03/15 00:21:59;;;;;;;6.43;4.50;;;9.80;99.90;;;;;;5012102;28;20240;-73
2022/03/15 00:24:25;;;;;;;9.40;5.00;;;9.80;99.90;;;;;;5030539;28;20189;-73
2022/03/15 00:26:54;;;;;;;6.97;4.00;;;9.80;99.90;;;;;;5028753;28;20533;-72
2022/03/15 00:29:22;;;;;;;7.05;5.10;;;9.80;99.90;;;;;;5029795;28;20579;-72
2022/03/15 00:31:48;;;;;;;6.03;3.75;;;9.80;99.90;;;;;;5029755;28;20260;-72
2022/03/15 00:34:13;;;;;;;5.57;3.70;;;9.80;99.90;;;;;;5029834;28;20232;-72
2022/03/15 00:36:40;;;;;;;6.75;5.05;;;9.80;99.90;;;;;;5022185;28;20622;-72
2022/03/15 00:39:07;;;;;;;6.50;4.60;;;9.80;99.90;;;;;;5029987;28;20161;-72
2022/03/15 00:41:35;;;;;;;5.28;3.67;;;9.80;99.90;;;;;;5012002;28;20206;-73
2022/03/15 00:44:01;;;;;;;6.70;4.90;;;9.80;99.90;;;;;;5032301;28;20349;-73
2022/03/15 00:46:27;;;;;;;8.23;4.10;;;9.70;99.90;;;;;;5032281;28;20561;-73
2022/03/15 00:48:53;;;;;;;6.77;4.30;;;9.70;99.90;;;;;;5015542;28;20664;-73
2022/03/15 00:51:18;;;;;;;5.60;3.75;;;9.80;99.90;;;;;;5033250;28;20600;-73
2022/03/15 00:53:44;;;;;;;7.80;3.90;;;9.80;99.90;;;;;;5032408;28;20286;-73
2022/03/15 00:56:11;;;;;;;7.65;4.60;;;9.80;99.90;;;;;;5036765;28;20815;-73
2022/03/15 00:58:37;;;;;;;5.90;3.83;;;9.70;99.90;;;;;;5032249;28;20220;-73
2022/03/15 01:01:08;;;;;;;6.47;4.53;;;9.70;99.90;;;;;;5032928;28;20201;-74
2022/03/15 01:03:33;;;;;;;7.30;3.67;;;9.70;99.90;;;;;;5031918;28;20256;-73
2022/03/15 01:05:59;;;;;;;5.90;3.60;;;9.70;99.90;;;;;;5033369;28;20168;-73
2022/03/15 01:08:25;;;;;;;6.83;5.03;;;9.70;99.90;;;;;;5033236;28;20597;-73
2022/03/15 01:10:51;;;;;;;4.80;3.90;;;9.70;99.90;;;;;;5031446;28;20917;-73
2022/03/15 01:13:18;;;;;;;8.95;4.00;;;9.70;99.90;;;;;;5033024;28;20185;-74
2022/03/15 01:15:44;;;;;;;8.93;4.80;;;9.70;99.90;;;;;;5015417;28;20170;-74
2022/03/15 01:18:13;;;;;;;11.65;4.60;;;9.60;99.90;;;;;;5033051;28;20173;-73
2022/03/15 01:20:42;;;;;;;7.82;4.15;;;9.60;99.90;;;;;;5014922;28;20201;-74
2022/03/15 01:23:08;;;;;;;8.15;4.55;;;9.60;99.90;;;;;;5032964;28;20583;-72
2022/03/15 01:25:33;;;;;;;5.77;3.97;;;9.60;99.90;;;;;;5032789;28;20169;-74
2022/03/15 01:27:59;;;;;;;7.97;4.83;;;9.60;99.90;;;;;;5031767;28;20193;-74
2022/03/15 01:30:31;;;;;;;4.10;3.55;;;9.60;99.90;;;;;;5015759;28;20268;-74
2022/03/15 01:32:58;;;;;;;4.43;3.55;;;9.60;99.90;;;;;;5035811;28;20261;-73
2022/03/15 01:35:23;;;;;;;4.97;3.58;;;9.60;99.90;;;;;;5033020;28;20178;-72
2022/03/15 01:37:50;;;;;;;6.57;3.70;;;9.60;99.90;;;;;;5033734;28;20260;-74
2022/03/15 01:40:16;;;;;;;8.13;3.90;;;9.60;99.90;;;;;;5020141;28;20245;-74
2022/03/15 01:42:43;;;;;;;5.88;3.58;;;9.60;99.90;;;;;;5036003;28;20498;-74
2022/03/15 01:45:10;;;;;;;6.50;4.30;;;9.60;99.90;;;;;;5016155;28;20200;-74
2022/03/15 01:47:37;;;;;;;7.68;5.00;;;9.60;99.90;;;;;;5032512;28;20200;-74
2022/03/15 01:50:03;;;;;;;4.80;3.63;;;9.60;99.90;;;;;;5032192;28;20158;-74
2022/03/15 01:52:29;;;;;;;7.28;4.30;;;9.60;99.90;;;;;;5033486;28;21183;-74
2022/03/15 01:54:55;;;;;;;7.27;4.03;;;9.60;99.90;;;;;;5031347;28;20280;-74
2022/03/15 01:57:21;;;;;;;5.28;3.88;;;9.60;99.90;;;;;;5030813;28;20296;-74
2022/03/15 01:59:47;;;;;;;5.67;4.30;;;9.60;99.90;;;;;;5024564;28;20196;-74
2022/03/15 02:02:13;;;;;;;7.50;4.30;;;9.60;99.90;;;;;;5023630;28;20603;-74
2022/03/15 02:04:39;;;;;;;7.50;3.97;;;9.60;99.90;;;;;;5033345;28;20624;-73
2022/03/15 02:07:12;;;;;;;6.13;4.17;;;9.60;99.90;;;;;;5033430;28;20165;-74
2022/03/15 02:09:40;;;;;;;7.03;4.68;;;9.60;99.90;;;;;;5033115;28;20166;-73
2022/03/15 02:12:07;;;;;;;4.88;3.22;;;9.60;99.90;;;;;;5033188;28;20201;-73
2022/03/15 02:14:34;;;;;;;7.88;4.97;;;9.60;99.90;;;;;;5032998;28;20618;-74
2022/03/15 02:17:00;;;;;;;5.57;4.40;;;9.60;99.90;;;;;;5032912;28;20528;-74
2022/03/15 02:19:27;;;;;;;8.18;4.75;;;9.60;99.90;;;;;;5031840;28;20162;-74
2022/03/15 02:21:57;;;;;;;7.17;4.40;;;9.60;99.90;;;;;;5031490;28;20201;-74
2022/03/15 02:24:23;;;;;;;6.22;5.00;;;9.60;99.90;;;;;;5031728;28;21241;-74
2022/03/15 02:26:50;;;;;;;7.72;3.83;;;9.60;99.90;;;;;;5031947;28;20177;-73
2022/03/15 02:29:16;;;;;;;9.98;5.15;;;9.60;99.90;;;;;;5032974;28;20165;-74
2022/03/15 02:31:41;;;;;;;5.65;4.18;;;9.60;99.90;;;;;;5032591;28;20185;-74
2022/03/15 02:34:08;;;;;;;6.63;4.30;;;9.60;99.90;;;;;;5031793;28;20681;-74
2022/03/15 02:36:35;;;;;;;5.10;4.30;;;9.60;99.90;;;;;;5031783;28;20235;-74
2022/03/15 02:39:01;;;;;;;4.97;4.30;;;9.50;99.90;;;;;;5032994;28;20228;-74
2022/03/15 02:41:27;;;;;;;6.33;4.00;;;9.50;99.90;;;;;;5032399;28;20669;-74
2022/03/15 02:43:53;;;;;;;5.72;4.35;;;9.50;99.90;;;;;;5033014;28;20188;-73
2022/03/15 02:46:18;;;;;;;10.20;5.53;;;9.50;99.90;;;;;;5032194;28;20161;-73
2022/03/15 02:48:44;;;;;;;9.97;5.07;;;9.40;99.90;;;;;;5032210;28;20614;-74
2022/03/15 02:51:10;;;;;;;5.90;3.70;;;9.40;99.90;;;;;;5031192;28;20166;-74
2022/03/15 02:53:37;;;;;;;9.87;4.90;;;9.40;99.90;;;;;;5030219;28;20229;-74
2022/03/15 02:56:05;;;;;;;5.10;3.30;;;9.40;99.90;;;;;;5031642;28;20174;-74
2022/03/15 02:58:31;;;;;;;7.22;4.20;;;9.40;99.90;;;;;;5030451;28;20224;-75
2022/03/15 03:00:57;;;;;;;5.37;4.60;;;9.30;99.90;;;;;;5029390;28;20598;-75
2022/03/15 03:03:23;;;;;;;5.80;3.80;;;9.30;99.90;;;;;;5030338;28;21179;-74
2022/03/15 03:05:49;;;;;;;5.15;3.65;;;9.30;99.90;;;;;;5030534;28;20572;-74
2022/03/15 03:08:16;;;;;;;4.50;3.70;;;9.30;99.90;;;;;;5030893;28;20169;-74
2022/03/15 03:10:45;;;;;;;4.03;3.58;;;9.30;99.90;;;;;;5030931;28;20169;-75
2022/03/15 03:13:11;;;;;;;6.07;3.85;;;9.30;99.90;;;;;;5031992;28;20177;-74
2022/03/15 03:15:36;;;;;;;6.53;4.05;;;9.40;99.90;;;;;;5032295;28;20236;-74
2022/03/15 03:18:02;;;;;;;8.50;3.80;;;9.40;99.90;;;;;;5030833;28;20535;-74
2022/03/15 03:20:28;;;;;;;4.40;3.90;;;9.40;99.90;;;;;;5030212;28;20194;-74
2022/03/15 03:22:55;;;;;;;8.27;4.05;;;9.40;99.90;;;;;;5031033;28;20162;-74
2022/03/15 03:25:21;;;;;;;5.50;4.30;;;9.40;99.90;;;;;;5032267;28;20640;-74
2022/03/15 03:27:47;;;;;;;4.40;3.35;;;9.40;99.90;;;;;;5032069;28;20568;-74
2022/03/15 03:30:14;;;;;;;4.63;3.42;;;9.30;99.90;;;;;;5031574;28;20162;-74
2022/03/15 03:32:42;;;;;;;5.97;4.85;;;9.30;99.90;;;;;;5030753;28;20170;-74
2022/03/15 03:35:08;;;;;;;5.17;3.77;;;9.30;99.90;;;;;;5031773;28;20236;-74
2022/03/15 03:37:34;;;;;;;5.40;3.65;;;9.30;99.90;;;;;;5031906;28;20170;-74
2022/03/15 03:40:06;;;;;;;7.53;4.73;;;9.30;99.90;;;;;;4997220;28;20224;-73
2022/03/15 03:42:32;;;;;;;5.40;4.88;;;9.20;99.90;;;;;;5032017;28;20675;-74
2022/03/15 03:44:57;;;;;;;8.03;3.60;;;9.20;99.90;;;;;;5031760;28;20280;-74
2022/03/15 03:47:23;;;;;;;5.43;3.87;;;9.20;99.90;;;;;;5030731;28;20169;-74
2022/03/15 03:49:49;;;;;;;5.70;3.30;;;9.20;99.90;;;;;;5031288;28;20252;-74
2022/03/15 03:52:15;;;;;;;4.60;3.55;;;9.20;99.90;;;;;;5013903;28;21139;-74
2022/03/15 03:54:41;;;;;;;5.07;3.60;;;9.20;99.90;;;;;;5031604;28;20189;-74
2022/03/15 03:57:07;;;;;;;4.53;3.17;;;9.20;99.90;;;;;;5031720;28;20174;-74
2022/03/15 03:59:33;;;;;;;5.97;3.50;;;9.20;99.90;;;;;;5030437;28;20568;-74
2022/03/15 04:01:58;;;;;;;7.93;3.40;;;9.20;99.90;;;;;;5032927;28;20212;-74
2022/03/15 04:04:25;;;;;;;4.93;3.50;;;9.20;99.90;;;;;;5031571;28;20189;-74
2022/03/15 04:06:51;;;;;;;6.60;4.18;;;9.20;99.90;;;;;;5031511;28;20182;-75
2022/03/15 04:09:17;;;;;;;4.60;3.77;;;9.20;99.90;;;;;;5031532;28;20169;-74
2022/03/15 04:11:43;;;;;;;6.90;2.90;;;9.20;99.90;;;;;;5031063;28;21136;-73
2022/03/15 04:14:11;;;;;;;4.37;3.20;;;9.20;99.90;;;;;;5030088;28;20727;-73
2022/03/15 04:16:38;;;;;;;4.88;3.17;;;9.20;99.90;;;;;;5032902;28;20596;-73
2022/03/15 04:19:04;;;;;;;4.75;2.60;;;9.20;99.90;;;;;;5027329;28;20193;-74
2022/03/15 04:21:30;;;;;;;5.07;3.47;;;9.20;99.90;;;;;;5031395;28;20224;-74
2022/03/15 04:23:56;;;;;;;6.87;3.37;;;9.20;99.90;;;;;;5029168;28;20557;-73
2022/03/15 04:26:24;;;;;;;3.75;3.15;;;9.20;99.90;;;;;;5035075;28;20569;-73
2022/03/15 04:28:51;;;;;;;5.60;3.50;;;9.20;99.90;;;;;;5028673;28;20253;-73
2022/03/15 04:31:17;;;;;;;5.57;3.17;;;9.20;99.90;;;;;;5029909;28;20177;-74
2022/03/15 04:33:43;;;;;;;6.00;3.00;;;9.30;99.90;;;;;;5027134;28;20215;-74
2022/03/15 04:36:09;;;;;;;6.45;2.85;;;9.30;99.90;;;;;;5034098;28;20174;-75
2022/03/15 04:38:35;;;;;;;3.88;3.15;;;9.30;99.90;;;;;;5038467;28;20208;-74
2022/03/15 04:41:03;;;;;;;3.83;2.88;;;9.30;99.90;;;;;;5033441;28;20567;-75
2022/03/15 04:43:28;;;;;;;4.03;3.60;;;9.30;99.90;;;;;;5033803;28;20204;-74
2022/03/15 04:45:54;;;;;;;3.63;2.50;;;9.30;99.90;;;;;;5017124;28;20646;-75
2022/03/15 04:48:20;;;;;;;6.13;4.00;;;9.30;99.90;;;;;;5033257;28;20188;-73
2022/03/15 04:50:46;;;;;;;4.18;2.90;;;9.30;99.90;;;;;;5024895;28;20172;-74
2022/03/15 04:53:13;;;;;;;4.57;3.20;;;9.30;99.90;;;;;;5033879;28;20193;-74
2022/03/15 04:55:39;;;;;;;6.43;3.60;;;9.30;99.90;;;;;;5033737;28;20260;-74
2022/03/15 04:58:05;;;;;;;5.43;2.50;;;9.30;99.90;;;;;;5034703;28;20622;-74
2022/03/15 05:00:31;;;;;;;4.90;2.90;;;9.40;99.90;;;;;;5032788;28;20632;-73
2022/03/15 05:02:57;;;;;;;6.93;2.45;;;9.40;99.90;;;;;;5033372;28;20177;-73
2022/03/15 05:05:23;;;;;;;5.60;3.07;;;9.40;99.90;;;;;;5033552;28;20690;-73
2022/03/15 05:07:49;;;;;;;4.70;2.83;;;9.40;99.90;;;;;;5034626;28;20228;-73
2022/03/15 05:13:00;;;;;;;4.68;2.33;;;9.30;99.90;;;;;;5034668;28;20563;-74
2022/03/15 05:15:27;;;;;;;5.35;2.95;;;9.30;99.90;;;;;;5035683;28;20253;-74
2022/03/15 05:17:53;;;;;;;5.60;3.47;;;9.30;99.90;;;;;;5034239;28;20170;-74
2022/03/15 05:20:19;;;;;;;3.07;2.50;;;9.30;99.90;;;;;;5033924;28;20593;-74
2022/03/15 05:22:46;;;;;;;2.72;2.05;;;9.40;99.90;;;;;;5034278;28;20573;-74
2022/03/15 05:25:13;;;;;;;3.45;2.80;;;9.40;99.90;;;;;;5034246;28;20576;-74
2022/03/15 05:27:40;;;;;;;4.88;3.60;;;9.40;99.90;;;;;;5031927;28;20181;-74
2022/03/15 05:30:07;;;;;;;6.72;2.65;;;9.40;99.90;;;;;;5032461;28;20630;-74
2022/03/15 05:32:33;;;;;;;3.33;2.80;;;9.30;99.90;;;;;;5032847;28;20713;-74
2022/03/15 05:34:59;;;;;;;4.88;3.10;;;9.30;99.90;;;;;;5034726;28;20673;-74
2022/03/15 05:37:25;;;;;;;5.03;2.50;;;9.30;99.90;;;;;;5032941;28;20178;-74
2022/03/15 05:39:51;;;;;;;3.47;2.03;;;9.30;99.90;;;;;;5015746;28;20567;-74
2022/03/15 05:42:18;;;;;;;4.70;2.80;;;9.40;99.90;;;;;;5032493;28;21001;-74
2022/03/15 05:44:44;;;;;;;6.32;2.50;;;9.40;99.90;;;;;;5032563;28;20605;-74
2022/03/15 05:47:10;;;;;;;4.90;2.38;;;9.40;99.90;;;;;;5032656;28;20170;-74
2022/03/15 05:49:35;;;;;;;5.37;2.60;;;9.40;99.90;;;;;;5033735;28;20168;-74
2022/03/15 05:52:03;;;;;;;3.60;2.30;;;9.40;99.90;;;;;;5036586;28;20204;-74
2022/03/15 05:54:29;;;;;;;7.75;2.88;;;9.40;99.90;;;;;;5032896;28;20719;-73
2022/03/15 05:56:55;;;;;;;3.35;2.17;;;9.50;99.90;;;;;;5033800;28;20162;-73
2022/03/15 05:59:21;;;;;;;5.63;2.20;;;9.50;99.90;;;;;;5032336;28;20177;-73
2022/03/15 06:01:47;;;;;;;2.97;2.00;;;9.50;99.90;;;;;;5032069;28;20670;-73
2022/03/15 06:04:12;;;;;;;5.10;2.17;;;9.50;99.90;;;;;;5032176;28;20224;-74
2022/03/15 06:06:38;;;;;;;6.10;2.53;;;9.50;99.90;;;;;;5032159;28;20173;-74
2022/03/15 06:09:04;;;;;;;5.10;2.50;;;9.50;99.90;;;;;;5025033;28;20166;-74
2022/03/15 06:11:34;;;;;;;6.43;2.47;;;9.60;99.90;;;;;;5033162;28;20537;-74
2022/03/15 06:14:01;;;;;;;5.57;2.63;;;9.60;99.90;;;;;;5031955;28;20898;-74
2022/03/15 06:16:27;;;;;;;5.75;2.95;;;9.60;99.90;;;;;;5031958;28;20178;-74
2022/03/15 06:18:52;;;;;;;5.83;2.43;;;9.60;99.90;;;;;;5033307;28;20169;-74
2022/03/15 06:21:19;;;;;;;9.27;2.80;;;9.60;99.90;;;;;;5032810;28;20612;-74
2022/03/15 06:23:45;;;;;;;5.70;3.00;;;9.60;99.90;;;;;;5033096;28;20200;-74
2022/03/15 06:26:10;;;;;;;4.47;2.83;;;9.60;99.90;;;;;;5033070;28;20640;-74
2022/03/15 06:28:37;;;;;;;4.50;2.67;;;9.60;99.90;;;;;;5033457;28;20180;-73
2022/03/15 06:31:04;;;;;;;4.78;2.90;;;9.60;99.90;;;;;;5034474;28;20560;-74
2022/03/15 06:33:30;;;;;;;8.15;2.65;;;9.60;99.90;;;;;;5032973;28;20193;-75
2022/03/15 06:35:56;;;;;;;4.43;3.00;;;9.60;99.90;;;;;;5031651;28;20181;-75
2022/03/15 06:38:24;;;;;;;6.10;2.93;;;9.70;99.90;;;;;;5031972;28;20592;-76
2022/03/15 06:40:53;;;;;;;4.40;2.53;;;9.70;99.90;;;;;;5030043;28;20662;-74
2022/03/15 06:43:19;;;;;;;3.05;2.45;;;9.70;99.90;;;;;;5031458;28;20190;-74
2022/03/15 06:45:46;;;;;;;5.70;2.53;;;9.70;99.90;;;;;;5031418;28;20695;-73
2022/03/15 06:48:12;;;;;;;4.85;2.20;;;9.80;99.90;;;;;;5032897;28;20610;-74
2022/03/15 06:50:40;;;;;;;3.20;1.80;;;9.90;99.90;;;;;;5032368;28;20635;-75
2022/03/15 06:53:06;;;;;;;2.13;1.60;;;9.90;99.90;;;;;;5031619;28;20572;-75
2022/03/15 06:55:32;;;;;;;3.45;2.15;;;9.90;99.90;;;;;;5032893;28;20177;-75
2022/03/15 06:57:59;;;;;;;4.25;1.90;;;9.90;99.90;;;;;;5031449;28;20216;-75
2022/03/15 07:00:26;;;;;;;2.65;2.22;;;10.00;99.90;;;;;;5032111;28;20169;-75
2022/03/15 07:02:52;;;;;;;4.50;1.93;;;10.00;99.90;;;;;;5032472;28;20575;-76
2022/03/15 07:05:17;;;;;;;10.87;2.70;;;10.10;99.90;;;;;;5031120;28;20251;-75
2022/03/15 07:07:43;;;;;;;4.50;2.27;;;10.10;99.90;;;;;;5030488;28;20266;-75
2022/03/15 07:10:10;;;;;;;10.60;2.40;;;10.10;99.90;;;;;;5017336;28;20174;-75
2022/03/15 07:12:37;;;;;;;6.40;2.50;;;10.10;99.90;;;;;;5010680;28;20593;-75
2022/03/15 07:15:04;;;;;;;7.72;2.60;;;10.10;99.90;;;;;;4994329;28;20214;-76
2022/03/15 07:17:30;;;;;;;4.60;2.40;;;10.10;99.90;;;;;;5010666;28;20190;-75
2022/03/15 07:19:57;;;;;;;3.17;2.00;;;10.20;99.90;;;;;;5018898;28;20579;-75
2022/03/15 07:22:24;;;;;;;5.25;2.25;;;10.30;99.90;;;;;;5021083;28;20652;-75
2022/03/15 07:24:51;;;;;;;6.78;2.10;;;10.30;99.90;;;;;;5031425;28;20651;-75
2022/03/15 07:27:18;;;;;;;4.85;2.75;;;10.30;99.90;;;;;;5015370;28;20175;-75
2022/03/15 07:29:44;;;;;;;6.53;2.45;;;10.40;99.90;;;;;;5011183;28;20252;-75
2022/03/15 07:32:10;;;;;;;2.50;1.97;;;10.40;99.90;;;;;;5011853;28;20205;-74
2022/03/15 07:34:36;;;;;;;3.67;2.13;;;10.40;99.90;;;;;;5010240;28;20609;-73
2022/03/15 07:37:02;;;;;;;3.50;2.53;;;10.40;99.90;;;;;;5011755;28;20178;-74
2022/03/15 07:39:27;;;;;;;5.47;2.38;;;10.40;99.90;;;;;;4977814;28;20178;-76
2022/03/15 07:41:54;;;;;;;3.85;2.08;;;10.40;99.90;;;;;;5009991;28;20209;-75
2022/03/15 07:44:21;;;;;;;4.60;1.55;;;10.40;99.90;;;;;;4998810;28;20194;-76
2022/03/15 07:46:50;;;;;;;3.90;1.92;;;10.40;99.90;;;;;;4998241;28;20181;-75
2022/03/15 07:49:20;;;;;;;4.93;2.58;;;10.40;99.90;;;;;;5031511;28;20179;-75
2022/03/15 07:51:47;;;;;;;3.28;1.92;;;10.50;99.90;;;;;;5029284;28;20177;-74
2022/03/15 07:54:13;;;;;;;4.80;2.40;;;10.50;99.90;;;;;;5030155;28;20189;-75
2022/03/15 07:56:38;;;;;;;4.70;2.33;;;10.50;99.90;;;;;;5031190;28;20180;-76
2022/03/15 07:59:04;;;;;;;3.03;1.93;;;10.50;99.90;;;;;;5030457;28;20568;-76
2022/03/15 08:01:31;;;;;;;3.77;2.17;;;10.50;99.90;;;;;;5030229;28;20205;-76
2022/03/15 08:03:57;;;;;;;3.60;2.33;;;10.60;99.90;;;;;;5030070;28;20628;-74
2022/03/15 08:06:23;;;;;;;7.63;2.35;;;10.60;99.90;;;;;;5029963;28;20272;-74
2022/03/15 08:08:49;;;;;;;5.72;2.00;;;10.60;99.90;;;;;;5031260;28;20165;-73
2022/03/15 08:11:15;;;;;;;7.50;2.33;;;10.70;99.90;;;;;;5030030;28;20531;-74
2022/03/15 08:13:41;;;;;;;7.95;3.13;;;10.80;99.90;;;;;;5030221;28;20851;-73
2022/03/15 08:16:07;;;;;;;5.60;2.83;;;10.80;99.90;;;;;;5030042;28;20176;-74
2022/03/15 08:18:33;;;;;;;4.17;2.23;;;10.90;99.90;;;;;;5010618;28;20300;-76
2022/03/15 08:20:59;;;;;;;4.65;2.05;;;10.90;99.90;;;;;;5029684;28;20272;-76
2022/03/15 08:23:29;;;;;;;4.40;2.05;;;11.00;99.90;;;;;;5019794;28;20241;-76
2022/03/15 08:25:57;;;;;;;5.03;2.40;;;11.00;99.90;;;;;;5010956;28;20265;-74
2022/03/15 08:28:24;;;;;;;5.80;2.40;;;11.10;99.90;;;;;;4993463;28;20253;-76
2022/03/15 08:30:51;;;;;;;3.30;2.22;;;11.10;99.90;;;;;;5011129;28;20179;-75
2022/03/15 08:33:17;;;;;;;6.57;2.75;;;11.20;99.90;;;;;;5011421;28;20181;-75
2022/03/15 08:35:44;;;;;;;4.05;3.10;;;11.20;99.90;;;;;;4993856;28;20167;-74
2022/03/15 08:38:11;;;;;;;4.33;2.60;;;11.20;99.90;;;;;;5011504;28;20702;-74
2022/03/15 08:40:37;;;;;;;6.78;2.10;;;11.30;99.90;;;;;;4993440;28;20980;-75
2022/03/15 08:43:04;;;;;;;4.32;2.58;;;11.30;99.90;;;;;;4994043;28;20171;-75
2022/03/15 08:45:30;;;;;;;3.42;2.20;;;11.40;99.90;;;;;;5011301;28;20186;-77
2022/03/15 08:47:57;;;;;;;3.83;2.20;;;11.50;99.90;;;;;;5010209;28;20174;-74
2022/03/15 08:50:23;;;;;;;4.15;2.38;;;11.50;99.90;;;;;;5010890;28;20166;-75
2022/03/15 08:52:49;;;;;;;6.18;2.40;;;11.50;99.90;;;;;;5012478;28;20170;-76
2022/03/15 08:55:16;;;;;;;3.10;1.77;;;11.60;99.90;;;;;;5008932;28;20698;-75
2022/03/15 08:57:41;;;;;;;4.10;2.05;;;11.60;99.90;;;;;;5011249;28;20557;-75
2022/03/15 09:00:10;;;;;;;3.20;2.10;;;11.70;99.90;;;;;;5010819;28;20209;-74
2022/03/15 09:02:36;;;;;;;3.38;2.00;;;11.70;99.90;;;;;;4993501;28;20206;-73
2022/03/15 09:05:02;;;;;;;4.30;2.05;;;11.70;99.90;;;;;;4996918;28;20313;-74
2022/03/15 09:07:30;;;;;;;5.03;1.98;;;11.80;99.90;;;;;;5013570;28;20582;-75
2022/03/15 09:09:56;;;;;;;3.45;2.22;;;11.80;99.90;;;;;;5013438;28;20206;-74
2022/03/15 09:12:22;;;;;;;4.95;2.30;;;11.90;99.90;;;;;;5013428;28;20531;-76
2022/03/15 09:14:48;;;;;;;3.35;1.73;;;12.00;99.90;;;;;;5013271;28;20741;-74
2022/03/15 09:17:15;;;;;;;4.07;2.13;;;12.00;99.90;;;;;;5012185;28;20171;-76
2022/03/15 09:19:41;;;;;;;5.53;2.40;;;12.00;99.90;;;;;;5013503;28;20174;-75
2022/03/15 09:22:08;;;;;;;4.40;1.88;;;12.00;99.90;;;;;;5011681;28;20202;-74
2022/03/15 09:24:36;;;;;;;4.18;2.00;;;12.10;99.90;;;;;;5014511;28;20673;-74
2022/03/15 09:27:03;;;;;;;3.30;2.28;;;12.10;99.90;;;;;;5007484;28;20293;-74
2022/03/15 09:29:29;;;;;;;4.13;2.50;;;12.20;99.90;;;;;;5014376;28;20715;-74
2022/03/15 09:31:55;;;;;;;6.20;2.20;;;12.30;99.90;;;;;;5014160;28;20636;-72
2022/03/15 09:34:22;;;;;;;5.00;3.00;;;12.30;99.90;;;;;;5018805;28;20589;-73
2022/03/15 09:36:49;;;;;;;3.28;1.73;;;12.30;99.90;;;;;;5014416;28;20536;-75
2022/03/15 09:39:15;;;;;;;3.95;2.25;;;12.30;99.90;;;;;;5013959;28;20288;-76
2022/03/15 09:41:43;;;;;;;3.70;2.40;;;12.30;99.90;;;;;;5013600;28;20217;-76
2022/03/15 09:44:11;;;;;;;4.10;1.83;;;12.40;99.90;;;;;;4996356;28;20186;-77
2022/03/15 09:46:40;;;;;;;3.50;2.20;;;12.40;99.90;;;;;;5013750;28;20170;-77
2022/03/15 09:49:07;;;;;;;5.85;2.38;;;12.40;99.90;;;;;;5013959;28;20166;-77
2022/03/15 09:51:35;;;;;;;2.58;1.85;;;12.50;99.90;;;;;;4996382;28;20178;-76
2022/03/15 09:54:03;;;;;;;4.18;2.17;;;12.60;99.90;;;;;;5013755;28;20237;-77
2022/03/15 09:56:29;;;;;;;3.63;1.83;;;12.60;99.90;;;;;;5014668;28;20261;-74
2022/03/15 09:58:56;;;;;;;5.50;2.50;;;12.70;99.90;;;;;;5005017;28;20178;-74
2022/03/15 10:01:22;;;;;;;3.60;2.30;;;12.70;99.90;;;;;;5022494;28;20194;-75
2022/03/15 10:03:47;;;;;;;3.00;1.90;;;12.80;99.90;;;;;;5012508;28;20205;-75
2022/03/15 10:06:14;;;;;;;3.50;2.47;;;12.70;99.90;;;;;;5013195;28;20696;-76
2022/03/15 10:08:41;;;;;;;6.88;2.72;;;12.70;99.90;;;;;;5012229;28;20666;-75
2022/03/15 10:11:07;;;;;;;4.53;3.10;;;12.70;99.90;;;;;;5013614;28;20635;-75
2022/03/15 10:13:33;;;;;;;5.87;2.80;;;12.70;99.90;;;;;;5011767;28;20244;-75
2022/03/15 10:16:00;;;;;;;3.70;2.42;;;12.60;99.90;;;;;;5013522;28;20931;-75
2022/03/15 10:18:27;;;;;;;4.00;2.42;;;12.50;99.90;;;;;;5014836;28;20184;-76
2022/03/15 10:20:54;;;;;;;4.50;2.70;;;12.50;99.90;;;;;;5032861;28;20202;-77
2022/03/15 10:23:29;;;;;;;5.68;3.83;;;12.50;99.90;;;;;;5023696;28;20201;-75
2022/03/15 10:25:58;;;;;;;4.70;2.92;;;12.50;99.90;;;;;;5031844;28;20165;-76
2022/03/15 10:28:24;;;;;;;4.88;2.92;;;12.50;99.90;;;;;;5032940;28;20240;-76
2022/03/15 10:30:50;;;;;;;5.75;2.65;;;12.50;99.90;;;;;;5027608;28;20186;-76
2022/03/15 10:33:18;;;;;;;5.53;2.75;;;12.50;99.90;;;;;;5022659;28;20513;-76
2022/03/15 10:35:49;;;;;;;3.72;2.40;;;12.50;99.90;;;;;;5012864;28;20542;-76
2022/03/15 10:38:17;;;;;;;4.93;2.60;;;12.50;99.90;;;;;;5012397;28;20174;-75
2022/03/15 10:40:46;;;;;;;4.82;3.00;;;12.50;99.90;;;;;;5016813;28;20190;-75
2022/03/15 10:43:17;;;;;;;8.05;3.40;;;12.60;99.90;;;;;;5026239;28;20178;-75
2022/03/15 10:45:46;;;;;;;8.10;5.07;;;12.60;99.90;;;;;;5020945;28;20186;-74
2022/03/15 10:48:32;;;;;;;6.68;3.95;;;12.60;99.90;;;;;;5034920;28;20177;-75
2022/03/15 10:51:01;;;;;;;5.28;3.20;;;12.70;99.90;;;;;;5010385;28;20202;-74
2022/03/15 10:53:44;;;;;;;5.72;3.65;;;12.80;99.90;;;;;;5011303;28;20190;-73
2022/03/15 10:56:18;;;;;;;5.32;3.05;;;12.80;99.90;;;;;;4995864;28;20213;-75
2022/03/15 10:58:52;;;;;;;2.90;2.58;;;12.80;99.90;;;;;;5017268;28;20173;-75
2022/03/15 11:01:23;;;;;;;3.63;2.03;;;12.80;99.90;;;;;;5014806;28;20199;-75
2022/03/15 11:04:03;;;;;;;5.63;3.25;;;12.80;99.90;;;;;;5016592;28;20233;-75
2022/03/15 11:06:43;;;;;;;5.57;3.20;;;12.70;99.90;;;;;;5016608;28;20225;-74
2022/03/15 11:09:21;;;;;;;6.85;2.55;;;12.70;99.90;;;;;;5017719;28;20189;-74
2022/03/15 11:12:06;;;;;;;8.35;3.42;;;12.60;99.90;;;;;;5018333;28;20552;-74
2022/03/15 11:14:44;;;;;;;6.22;3.00;;;12.60;99.90;;;;;;5020891;28;20205;-74
2022/03/15 11:17:24;;;;;;;4.93;3.22;;;12.50;99.90;;;;;;5034352;28;20195;-74
2022/03/15 11:19:53;;;;;;;6.45;3.85;;;12.40;99.90;;;;;;5023503;28;20189;-74
2022/03/15 11:22:21;;;;;;;5.55;3.65;;;12.40;99.90;;;;;;5027716;28;20254;-74
2022/03/15 11:25:05;;;;;;;7.65;4.60;;;12.30;99.90;;;;;;5022023;28;20182;-74
2022/03/15 11:27:40;;;;;;;8.13;4.38;;;12.30;99.90;;;;;;5011127;28;20158;-74
2022/03/15 11:30:11;;;;;;;5.75;2.90;;;12.20;99.90;;;;;;5011527;28;20224;-75
2022/03/15 11:32:39;;;;;;;6.50;3.50;;;12.10;99.90;;;;;;4994764;28;20187;-74
2022/03/15 11:35:10;;;;;;;5.60;3.60;;;12.00;99.90;;;;;;5012521;28;20558;-74
2022/03/15 11:37:39;;;;;;;8.52;4.75;;;12.00;99.90;;;;;;5011344;28;20185;-74
2022/03/15 11:40:08;;;;;;;7.32;4.13;;;12.00;99.90;;;;;;5012742;28;20174;-74
2022/03/15 11:42:36;;;;;;;4.88;4.05;;;11.90;99.90;;;;;;5011628;28;20198;-75
2022/03/15 11:45:13;;;;;;;5.80;3.28;;;11.90;99.90;;;;;;5012372;28;20195;-74
2022/03/15 11:48:00;;;;;;;6.05;3.55;;;11.80;99.90;;;;;;5018562;28;20173;-74
2022/03/15 11:51:04;;;;;;;3.50;3.20;;;11.80;99.90;;;;;;5021032;28;20170;-74
2022/03/15 11:53:58;;;;;;;4.18;2.45;;;11.80;99.90;;;;;;5028835;28;20200;-74
2022/03/15 11:56:32;;;;;;;5.30;3.10;;;11.90;99.90;;;;;;5031466;28;20268;-74
2022/03/15 11:59:00;;;;;;;5.38;3.40;;;11.90;99.90;;;;;;5031656;28;20526;-74
2022/03/15 12:01:28;;;;;;;5.65;2.60;;;11.90;99.90;;;;;;5029731;28;20197;-74
2022/03/15 12:03:57;;;;;;;5.65;3.20;;;12.00;99.90;;;;;;5013919;28;20201;-74
2022/03/15 12:06:28;;;;;;;3.55;2.72;;;12.00;99.90;;;;;;5010195;28;20180;-74
2022/03/15 12:08:57;;;;;;;4.30;2.65;;;12.10;99.90;;;;;;5011707;28;20166;-75
2022/03/15 12:11:28;;;;;;;4.82;2.70;;;12.10;99.90;;;;;;5009863;28;20170;-75
2022/03/15 12:14:13;;;;;;;2.33;2.00;;;12.10;99.90;;;;;;5009941;28;20206;-75
2022/03/15 12:16:51;;;;;;;2.90;2.08;;;12.10;99.90;;;;;;5009942;28;20174;-76
2022/03/15 12:19:37;;;;;;;3.55;2.28;;;12.10;99.90;;;;;;5009981;28;20170;-76
2022/03/15 12:22:09;;;;;;;5.78;2.92;;;12.10;99.90;;;;;;5011442;28;20197;-75
2022/03/15 12:24:41;;;;;;;3.20;2.15;;;12.00;99.90;;;;;;5011397;28;20594;-75
2022/03/15 12:27:22;;;;;;;3.40;1.80;;;12.00;99.90;;;;;;5010170;28;20190;-75
2022/03/15 12:30:07;;;;;;;7.30;2.60;;;12.00;99.90;;;;;;5009994;28;20174;-74
2022/03/15 12:32:32;;;;;;;6.03;2.33;;;12.00;99.90;;;;;;5010052;28;20174;-75
2022/03/15 12:34:59;;;;;;;5.60;2.87;;;12.00;99.90;;;;;;5011268;28;20197;-76
2022/03/15 12:37:39;;;;;;;4.78;3.33;;;12.00;99.90;;;;;;5012340;28;20713;-74
2022/03/15 12:40:07;;;;;;;4.60;2.65;;;12.00;99.90;;;;;;5019280;28;20194;-75
2022/03/15 12:42:33;;;;;;;5.30;3.38;;;12.00;99.90;;;;;;5013614;28;20233;-74
2022/03/15 12:45:14;;;;;;;3.28;1.70;;;12.20;99.90;;;;;;5016173;28;20218;-73
2022/03/15 12:47:47;;;;;;;3.95;2.78;;;12.30;99.90;;;;;;5022742;28;20715;-74
2022/03/15 12:50:14;;;;;;;3.90;2.97;;;12.20;99.90;;;;;;5034274;28;20177;-75
2022/03/15 12:52:41;;;;;;;4.80;2.70;;;12.30;99.90;;;;;;5009102;28;20178;-74
2022/03/15 12:55:16;;;;;;;6.40;4.03;;;12.40;99.90;;;;;;5028274;28;20201;-74
2022/03/15 12:57:44;;;;;;;4.60;2.60;;;12.40;99.90;;;;;;5032986;28;20625;-73
2022/03/15 13:00:14;;;;;;;4.75;2.40;;;12.40;99.90;;;;;;5013995;28;20270;-75